sensor_id;sensor_type;location;lat;lon;timestamp;pressure;altitude;pressure_sealevel;temperature;humidity
41967;BME280;27656;53.068;8.818;2024-01-30T00:00:41;102746.28;;;2.95;100.00
41967;BME280;27656;53.068;8.818;2024-01-30T00:03:07;102738.41;;;2.97;100.00
41967;BME280;27656;53.068;8.818;2024-01-30T00:05:34;102744.69;;;2.91;100.00
41967;BME280;27656;53.068;8.818;2024-01-30T00:08:00;102748.25;;;2.89;100.00
41967;BME280;27656;53.068;8.818;2024-01-30T00:10:27;102748.41;;;2.86;100.00
41967;BME280;27656;53.068;8.818;2024-01-30T00:12:53;102747.59;;;2.84;100.00
41967;BME280;27656;53.068;8.818;2024-01-30T00:15:20;102748.69;;;2.78;100.00
41967;BME280;27656;53.068;8.818;2024-01-30T00:17:46;102746.88;;;2.80;100.00
41967;BME280;27656;53.068;8.818;2024-01-30T00:20:13;102742.50;;;2.81;100.00
41967;BME280;27656;53.068;8.818;2024-01-30T00:22:40;102746.97;;;2.77;100.00
41967;BME280;27656;53.068;8.818;2024-01-30T00:25:06;102741.09;;;2.72;100.00
41967;BME280;27656;53.068;8.818;2024-01-30T00:27:33;102741.34;;;2.66;100.00
41967;BME280;27656;53.068;8.818;2024-01-30T00:29:59;102739.59;;;2.66;100.00
41967;BME280;27656;53.068;8.818;2024-01-30T00:32:26;102737.81;;;2.67;100.00
41967;BME280;27656;53.068;8.818;2024-01-30T00:34:52;102734.38;;;2.66;100.00
41967;BME280;27656;53.068;8.818;2024-01-30T00:37:19;102742.25;;;2.65;100.00
41967;BME280;27656;53.068;8.818;2024-01-30T00:39:46;102744.00;;;2.64;100.00
41967;BME280;27656;53.068;8.818;2024-01-30T00:42:12;102742.38;;;2.62;100.00
41967;BME280;27656;53.068;8.818;2024-01-30T00:44:39;102740.66;;;2.61;100.00
41967;BME280;27656;53.068;8.818;2024-01-30T00:47:05;102739.09;;;2.57;100.00
41967;BME280;27656;53.068;8.818;2024-01-30T00:49:32;102735.84;;;2.50;100.00
41967;BME280;27656;53.068;8.818;2024-01-30T00:51:59;102745.28;;;2.54;100.00
41967;BME280;27656;53.068;8.818;2024-01-30T00:54:25;102735.72;;;2.53;100.00
41967;BME280;27656;53.068;8.818;2024-01-30T00:56:52;102740.91;;;2.54;100.00
41967;BME280;27656;53.068;8.818;2024-01-30T00:59:18;102731.31;;;2.55;100.00
41967;BME280;27656;53.068;8.818;2024-01-30T01:01:45;102730.56;;;2.51;100.00
41967;BME280;27656;53.068;8.818;2024-01-30T01:04:11;102725.97;;;2.58;100.00
41967;BME280;27656;53.068;8.818;2024-01-30T01:06:38;102724.94;;;2.62;100.00
41967;BME280;27656;53.068;8.818;2024-01-30T01:09:04;102725.75;;;2.64;100.00
41967;BME280;27656;53.068;8.818;2024-01-30T01:11:31;102719.56;;;2.67;100.00
41967;BME280;27656;53.068;8.818;2024-01-30T01:13:57;102722.88;;;2.70;100.00
41967;BME280;27656;53.068;8.818;2024-01-30T01:16:24;102716.72;;;2.73;100.00
41967;BME280;27656;53.068;8.818;2024-01-30T01:18:51;102713.34;;;2.71;100.00
41967;BME280;27656;53.068;8.818;2024-01-30T01:21:17;102710.78;;;2.69;100.00
41967;BME280;27656;53.068;8.818;2024-01-30T01:23:44;102711.56;;;2.71;100.00
41967;BME280;27656;53.068;8.818;2024-01-30T01:26:10;102712.41;;;2.72;100.00
41967;BME280;27656;53.068;8.818;2024-01-30T01:28:37;102711.44;;;2.74;100.00
41967;BME280;27656;53.068;8.818;2024-01-30T01:31:05;102713.91;;;2.78;100.00
41967;BME280;27656;53.068;8.818;2024-01-30T01:33:32;102710.41;;;2.79;100.00
41967;BME280;27656;53.068;8.818;2024-01-30T01:36:00;102703.56;;;2.76;100.00
41967;BME280;27656;53.068;8.818;2024-01-30T01:38:29;102693.97;;;2.76;100.00
41967;BME280;27656;53.068;8.818;2024-01-30T01:40:55;102699.19;;;2.76;100.00
41967;BME280;27656;53.068;8.818;2024-01-30T01:43:22;102691.22;;;2.80;100.00
41967;BME280;27656;53.068;8.818;2024-01-30T01:45:48;102684.34;;;2.79;100.00
41967;BME280;27656;53.068;8.818;2024-01-30T01:48:15;102679.97;;;2.79;100.00
41967;BME280;27656;53.068;8.818;2024-01-30T01:50:42;102681.84;;;2.75;100.00
41967;BME280;27656;53.068;8.818;2024-01-30T01:53:10;102689.56;;;2.79;100.00
41967;BME280;27656;53.068;8.818;2024-01-30T01:55:37;102694.03;;;2.75;100.00
41967;BME280;27656;53.068;8.818;2024-01-30T01:58:03;102685.47;;;2.71;100.00
41967;BME280;27656;53.068;8.818;2024-01-30T02:00:31;102696.03;;;2.68;100.00
41967;BME280;27656;53.068;8.818;2024-01-30T02:02:58;102686.38;;;2.70;100.00
41967;BME280;27656;53.068;8.818;2024-01-30T02:05:26;102685.63;;;2.68;100.00
41967;BME280;27656;53.068;8.818;2024-01-30T02:07:52;102687.16;;;2.72;100.00
41967;BME280;27656;53.068;8.818;2024-01-30T02:10:20;102687.16;;;2.72;100.00
41967;BME280;27656;53.068;8.818;2024-01-30T02:12:48;102682.09;;;2.69;100.00
41967;BME280;27656;53.068;8.818;2024-01-30T02:15:14;102677.00;;;2.66;100.00
41967;BME280;27656;53.068;8.818;2024-01-30T02:17:41;102677.03;;;2.65;100.00
41967;BME280;27656;53.068;8.818;2024-01-30T02:20:07;102672.75;;;2.64;100.00
41967;BME280;27656;53.068;8.818;2024-01-30T02:22:36;102678.81;;;2.64;100.00
41967;BME280;27656;53.068;8.818;2024-01-30T02:25:03;102676.38;;;2.60;100.00
41967;BME280;27656;53.068;8.818;2024-01-30T02:27:30;102672.00;;;2.60;100.00
41967;BME280;27656;53.068;8.818;2024-01-30T02:29:56;102668.69;;;2.57;100.00
41967;BME280;27656;53.068;8.818;2024-01-30T02:32:23;102661.84;;;2.54;100.00
41967;BME280;27656;53.068;8.818;2024-01-30T02:34:49;102662.06;;;2.48;100.00
41967;BME280;27656;53.068;8.818;2024-01-30T02:37:16;102657.84;;;2.44;100.00
41967;BME280;27656;53.068;8.818;2024-01-30T02:39:43;102651.81;;;2.43;100.00
41967;BME280;27656;53.068;8.818;2024-01-30T02:42:09;102650.22;;;2.39;100.00
41967;BME280;27656;53.068;8.818;2024-01-30T02:44:35;102639.00;;;2.37;100.00
41967;BME280;27656;53.068;8.818;2024-01-30T02:47:02;102639.25;;;2.31;100.00
41967;BME280;27656;53.068;8.818;2024-01-30T02:49:29;102640.22;;;2.28;100.00
41967;BME280;27656;53.068;8.818;2024-01-30T02:51:55;102636.75;;;2.28;100.00
41967;BME280;27656;53.068;8.818;2024-01-30T02:54:23;102633.38;;;2.26;100.00
41967;BME280;27656;53.068;8.818;2024-01-30T02:56:49;102633.59;;;2.20;100.00
41967;BME280;27656;53.068;8.818;2024-01-30T02:59:16;102629.38;;;2.16;100.00
41967;BME280;27656;53.068;8.818;2024-01-30T03:01:45;102637.19;;;2.16;100.00
41967;BME280;27656;53.068;8.818;2024-01-30T03:04:13;102628.41;;;2.18;100.00
41967;BME280;27656;53.068;8.818;2024-01-30T03:06:45;102633.72;;;2.17;100.00
41967;BME280;27656;53.068;8.818;2024-01-30T03:09:12;102630.97;;;2.20;100.00
41967;BME280;27656;53.068;8.818;2024-01-30T03:11:39;102626.56;;;2.22;100.00
41967;BME280;27656;53.068;8.818;2024-01-30T03:14:06;102625.72;;;2.21;100.00
41967;BME280;27656;53.068;8.818;2024-01-30T03:16:33;102620.50;;;2.21;100.00
41967;BME280;27656;53.068;8.818;2024-01-30T03:18:59;102621.34;;;2.22;100.00
41967;BME280;27656;53.068;8.818;2024-01-30T03:21:27;102615.34;;;2.20;100.00
41967;BME280;27656;53.068;8.818;2024-01-30T03:23:53;102612.03;;;2.16;100.00
41967;BME280;27656;53.068;8.818;2024-01-30T03:26:20;102615.38;;;2.18;100.00
41967;BME280;27656;53.068;8.818;2024-01-30T03:28:46;102610.19;;;2.18;100.00
41967;BME280;27656;53.068;8.818;2024-01-30T03:31:14;102611.06;;;2.19;100.00
41967;BME280;27656;53.068;8.818;2024-01-30T03:33:41;102610.25;;;2.17;100.00
41967;BME280;27656;53.068;8.818;2024-01-30T03:36:08;102609.41;;;2.16;100.00
41967;BME280;27656;53.068;8.818;2024-01-30T03:38:35;102606.06;;;2.12;100.00
41967;BME280;27656;53.068;8.818;2024-01-30T03:41:01;102602.31;;;2.20;100.00
41967;BME280;27656;53.068;8.818;2024-01-30T03:43:28;102609.03;;;2.25;100.00
41967;BME280;27656;53.068;8.818;2024-01-30T03:45:54;102598.44;;;2.30;100.00
41967;BME280;27656;53.068;8.818;2024-01-30T03:48:21;102602.59;;;2.36;100.00
41967;BME280;27656;53.068;8.818;2024-01-30T03:50:47;102599.06;;;2.37;100.00
41967;BME280;27656;53.068;8.818;2024-01-30T03:53:13;102595.28;;;2.44;100.00
41967;BME280;27656;53.068;8.818;2024-01-30T03:55:40;102603.91;;;2.46;100.00
41967;BME280;27656;53.068;8.818;2024-01-30T03:58:06;102603.84;;;2.47;100.00
41967;BME280;27656;53.068;8.818;2024-01-30T04:00:33;102602.16;;;2.46;100.00
41967;BME280;27656;53.068;8.818;2024-01-30T04:02:59;102599.47;;;2.48;100.00
41967;BME280;27656;53.068;8.818;2024-01-30T04:05:26;102603.00;;;2.47;100.00
41967;BME280;27656;53.068;8.818;2024-01-30T04:07:52;102597.84;;;2.45;100.00
41967;BME280;27656;53.068;8.818;2024-01-30T04:10:19;102600.28;;;2.50;100.00
41967;BME280;27656;53.068;8.818;2024-01-30T04:12:46;102599.34;;;2.51;100.00
41967;BME280;27656;53.068;8.818;2024-01-30T04:15:12;102597.59;;;2.51;100.00
41967;BME280;27656;53.068;8.818;2024-01-30T04:17:40;102597.50;;;2.54;100.00
41967;BME280;27656;53.068;8.818;2024-01-30T04:20:06;102596.44;;;2.59;100.00
41967;BME280;27656;53.068;8.818;2024-01-30T04:22:33;102598.16;;;2.60;100.00
41967;BME280;27656;53.068;8.818;2024-01-30T04:24:59;102596.38;;;2.60;100.00
41967;BME280;27656;53.068;8.818;2024-01-30T04:27:26;102592.88;;;2.61;100.00
41967;BME280;27656;53.068;8.818;2024-01-30T04:29:53;102587.78;;;2.58;100.00
41967;BME280;27656;53.068;8.818;2024-01-30T04:32:19;102593.91;;;2.57;100.00
41967;BME280;27656;53.068;8.818;2024-01-30T04:34:45;102594.88;;;2.54;100.00
41967;BME280;27656;53.068;8.818;2024-01-30T04:37:12;102591.34;;;2.55;100.00
41967;BME280;27656;53.068;8.818;2024-01-30T04:39:39;102591.31;;;2.57;100.00
41967;BME280;27656;53.068;8.818;2024-01-30T04:42:05;102586.94;;;2.58;100.00
41967;BME280;27656;53.068;8.818;2024-01-30T04:44:34;102581.66;;;2.59;100.00
41967;BME280;27656;53.068;8.818;2024-01-30T04:47:01;102587.66;;;2.61;100.00
41967;BME280;27656;53.068;8.818;2024-01-30T04:49:28;102581.59;;;2.61;100.00
41967;BME280;27656;53.068;8.818;2024-01-30T04:51:55;102580.69;;;2.62;100.00
41967;BME280;27656;53.068;8.818;2024-01-30T04:54:23;102575.34;;;2.65;100.00
41967;BME280;27656;53.068;8.818;2024-01-30T04:56:49;102574.50;;;2.64;100.00
41967;BME280;27656;53.068;8.818;2024-01-30T04:59:16;102583.03;;;2.68;100.00
41967;BME280;27656;53.068;8.818;2024-01-30T05:01:42;102571.69;;;2.69;100.00
41967;BME280;27656;53.068;8.818;2024-01-30T05:04:09;102574.91;;;2.75;100.00
41967;BME280;27656;53.068;8.818;2024-01-30T05:06:42;102574.91;;;2.75;100.00
41967;BME280;27656;53.068;8.818;2024-01-30T05:09:09;102573.06;;;2.78;100.00
41967;BME280;27656;53.068;8.818;2024-01-30T05:11:39;102571.44;;;2.75;100.00
41967;BME280;27656;53.068;8.818;2024-01-30T05:14:07;102567.19;;;2.72;100.00
41967;BME280;27656;53.068;8.818;2024-01-30T05:16:34;102562.25;;;2.66;100.00
41967;BME280;27656;53.068;8.818;2024-01-30T05:19:00;102563.13;;;2.65;100.00
41967;BME280;27656;53.068;8.818;2024-01-30T05:21:29;102557.28;;;2.60;100.00
41967;BME280;27656;53.068;8.818;2024-01-30T05:23:55;102566.84;;;2.60;100.00
41967;BME280;27656;53.068;8.818;2024-01-30T05:26:21;102561.00;;;2.54;100.00
41967;BME280;27656;53.068;8.818;2024-01-30T05:28:49;102561.88;;;2.53;100.00
41967;BME280;27656;53.068;8.818;2024-01-30T05:31:15;102554.06;;;2.53;100.00
41967;BME280;27656;53.068;8.818;2024-01-30T05:33:42;102559.09;;;2.58;100.00
41967;BME280;27656;53.068;8.818;2024-01-30T05:36:12;102558.97;;;2.61;100.00
41967;BME280;27656;53.068;8.818;2024-01-30T05:38:39;102555.44;;;2.62;100.00
41967;BME280;27656;53.068;8.818;2024-01-30T05:41:05;102552.91;;;2.61;100.00
41967;BME280;27656;53.068;8.818;2024-01-30T05:43:32;102554.06;;;2.53;100.00
41967;BME280;27656;53.068;8.818;2024-01-30T05:45:58;102555.78;;;2.54;100.00
41967;BME280;27656;53.068;8.818;2024-01-30T05:48:25;102557.41;;;2.57;100.00
41967;BME280;27656;53.068;8.818;2024-01-30T05:50:51;102557.28;;;2.60;100.00
41967;BME280;27656;53.068;8.818;2024-01-30T05:53:18;102563.22;;;2.64;100.00
41967;BME280;27656;53.068;8.818;2024-01-30T05:55:45;102558.91;;;2.63;100.00
41967;BME280;27656;53.068;8.818;2024-01-30T05:58:12;102561.47;;;2.64;100.00
41967;BME280;27656;53.068;8.818;2024-01-30T06:00:38;102568.50;;;2.62;100.00
41967;BME280;27656;53.068;8.818;2024-01-30T06:03:05;102559.94;;;2.59;100.00
41967;BME280;27656;53.068;8.818;2024-01-30T06:05:31;102553.97;;;2.57;100.00
41967;BME280;27656;53.068;8.818;2024-01-30T06:07:58;102561.66;;;2.60;100.00
41967;BME280;27656;53.068;8.818;2024-01-30T06:10:24;102564.13;;;2.63;100.00
41967;BME280;27656;53.068;8.818;2024-01-30T06:12:51;102560.44;;;2.68;100.00
41967;BME280;27656;53.068;8.818;2024-01-30T06:15:17;102569.81;;;2.72;100.00
41967;BME280;27656;53.068;8.818;2024-01-30T06:17:44;102567.16;;;2.74;100.00
41967;BME280;27656;53.068;8.818;2024-01-30T06:20:11;102564.34;;;2.79;100.00
41967;BME280;27656;53.068;8.818;2024-01-30T06:22:37;102560.56;;;2.86;100.00
41967;BME280;27656;53.068;8.818;2024-01-30T06:25:04;102557.63;;;2.93;100.00
41967;BME280;27656;53.068;8.818;2024-01-30T06:27:30;102554.84;;;2.98;100.00
41967;BME280;27656;53.068;8.818;2024-01-30T06:29:57;102551.19;;;3.02;100.00
41967;BME280;27656;53.068;8.818;2024-01-30T06:32:23;102560.69;;;3.03;100.00
41967;BME280;27656;53.068;8.818;2024-01-30T06:34:50;102557.91;;;3.08;100.00
41967;BME280;27656;53.068;8.818;2024-01-30T06:37:16;102558.63;;;3.11;100.00
41967;BME280;27656;53.068;8.818;2024-01-30T06:39:43;102550.00;;;3.09;100.00
41967;BME280;27656;53.068;8.818;2024-01-30T06:42:10;102550.84;;;3.10;100.00
41967;BME280;27656;53.068;8.818;2024-01-30T06:44:38;102538.66;;;3.10;100.00
41967;BME280;27656;53.068;8.818;2024-01-30T06:47:04;102547.13;;;3.15;100.00
41967;BME280;27656;53.068;8.818;2024-01-30T06:49:31;102551.38;;;3.18;100.00
41967;BME280;27656;53.068;8.818;2024-01-30T06:51:58;102551.31;;;3.19;100.00
41967;BME280;27656;53.068;8.818;2024-01-30T06:54:24;102553.13;;;3.17;100.00
41967;BME280;27656;53.068;8.818;2024-01-30T06:56:51;102547.84;;;3.19;100.00
41967;BME280;27656;53.068;8.818;2024-01-30T06:59:17;102549.63;;;3.18;100.00
41967;BME280;27656;53.068;8.818;2024-01-30T07:01:44;102545.25;;;3.19;100.00
41967;BME280;27656;53.068;8.818;2024-01-30T07:04:10;102550.50;;;3.17;100.00
41967;BME280;27656;53.068;8.818;2024-01-30T07:06:37;102539.22;;;3.17;100.00
41967;BME280;27656;53.068;8.818;2024-01-30T07:09:03;102534.94;;;3.16;100.00
41967;BME280;27656;53.068;8.818;2024-01-30T07:11:31;102525.41;;;3.15;100.00
41967;BME280;27656;53.068;8.818;2024-01-30T07:13:58;102535.00;;;3.14;100.00
41967;BME280;27656;53.068;8.818;2024-01-30T07:16:25;102541.06;;;3.15;100.00
41967;BME280;27656;53.068;8.818;2024-01-30T07:18:52;102540.22;;;3.14;100.00
41967;BME280;27656;53.068;8.818;2024-01-30T07:21:19;102548.69;;;3.19;100.00
41967;BME280;27656;53.068;8.818;2024-01-30T07:23:48;102539.09;;;3.20;100.00
41967;BME280;27656;53.068;8.818;2024-01-30T07:26:14;102543.41;;;3.21;100.00
41967;BME280;27656;53.068;8.818;2024-01-30T07:28:41;102529.38;;;3.24;100.00
41967;BME280;27656;53.068;8.818;2024-01-30T07:31:07;102534.59;;;3.24;100.00
41967;BME280;27656;53.068;8.818;2024-01-30T07:33:34;102527.34;;;3.30;100.00
41967;BME280;27656;53.068;8.818;2024-01-30T07:36:00;102527.84;;;3.38;100.00
41967;BME280;27656;53.068;8.818;2024-01-30T07:38:27;102531.09;;;3.44;100.00
41967;BME280;27656;53.068;8.818;2024-01-30T07:40:53;102525.03;;;3.43;100.00
41967;BME280;27656;53.068;8.818;2024-01-30T07:43:20;102519.47;;;3.51;100.00
41967;BME280;27656;53.068;8.818;2024-01-30T07:45:46;102509.78;;;3.53;100.00
41967;BME280;27656;53.068;8.818;2024-01-30T07:48:13;102513.81;;;3.60;100.00
41967;BME280;27656;53.068;8.818;2024-01-30T07:50:40;102514.44;;;3.65;100.00
41967;BME280;27656;53.068;8.818;2024-01-30T07:53:07;102511.63;;;3.70;100.00
41967;BME280;27656;53.068;8.818;2024-01-30T07:55:33;102512.97;;;3.78;100.00
41967;BME280;27656;53.068;8.818;2024-01-30T07:58:00;102508.47;;;3.82;100.00
41967;BME280;27656;53.068;8.818;2024-01-30T08:00:26;102503.78;;;3.89;100.00
41967;BME280;27656;53.068;8.818;2024-01-30T08:02:55;102514.66;;;3.98;100.00
41967;BME280;27656;53.068;8.818;2024-01-30T08:05:22;102515.84;;;4.10;100.00
41967;BME280;27656;53.068;8.818;2024-01-30T08:07:50;102518.84;;;4.20;100.00
41967;BME280;27656;53.068;8.818;2024-01-30T08:10:17;102515.97;;;4.26;100.00
41967;BME280;27656;53.068;8.818;2024-01-30T08:12:46;102523.34;;;4.35;100.00
41967;BME280;27656;53.068;8.818;2024-01-30T08:15:13;102521.31;;;4.42;100.00
41967;BME280;27656;53.068;8.818;2024-01-30T08:17:40;102519.13;;;4.50;100.00
41967;BME280;27656;53.068;8.818;2024-01-30T08:20:07;102526.69;;;4.56;100.00
41967;BME280;27656;53.068;8.818;2024-01-30T08:22:35;102515.78;;;4.65;100.00
41967;BME280;27656;53.068;8.818;2024-01-30T08:25:01;102523.00;;;4.78;100.00
41967;BME280;27656;53.068;8.818;2024-01-30T08:27:28;102526.84;;;4.88;100.00
41967;BME280;27656;53.068;8.818;2024-01-30T08:29:55;102517.91;;;4.92;100.00
41967;BME280;27656;53.068;8.818;2024-01-30T08:32:21;102515.59;;;5.03;100.00
41967;BME280;27656;53.068;8.818;2024-01-30T08:34:47;102520.25;;;5.14;100.00
41967;BME280;27656;53.068;8.818;2024-01-30T08:37:14;102516.94;;;5.28;100.00
41967;BME280;27656;53.068;8.818;2024-01-30T08:39:43;102517.47;;;5.35;100.00
41967;BME280;27656;53.068;8.818;2024-01-30T08:42:11;102519.72;;;5.41;100.00
41967;BME280;27656;53.068;8.818;2024-01-30T08:44:37;102513.94;;;5.51;100.00
41967;BME280;27656;53.068;8.818;2024-01-30T08:47:05;102517.75;;;5.62;100.00
41967;BME280;27656;53.068;8.818;2024-01-30T08:49:32;102513.63;;;5.73;100.00
41967;BME280;27656;53.068;8.818;2024-01-30T08:51:58;102516.19;;;5.91;100.00
41967;BME280;27656;53.068;8.818;2024-01-30T08:54:25;102521.34;;;6.08;100.00
41967;BME280;27656;53.068;8.818;2024-01-30T08:56:52;102515.84;;;6.29;100.00
41967;BME280;27656;53.068;8.818;2024-01-30T08:59:19;102513.84;;;6.48;100.00
41967;BME280;27656;53.068;8.818;2024-01-30T09:01:45;102510.00;;;6.54;100.00
41967;BME280;27656;53.068;8.818;2024-01-30T09:04:28;102508.91;;;6.58;100.00
41967;BME280;27656;53.068;8.818;2024-01-30T09:06:55;102510.56;;;6.59;100.00
41967;BME280;27656;53.068;8.818;2024-01-30T09:09:22;102510.50;;;6.61;100.00
41967;BME280;27656;53.068;8.818;2024-01-30T09:11:48;102508.78;;;6.59;100.00
41967;BME280;27656;53.068;8.818;2024-01-30T09:14:15;102512.94;;;6.64;100.00
41967;BME280;27656;53.068;8.818;2024-01-30T09:16:41;102514.75;;;6.77;100.00
41967;BME280;27656;53.068;8.818;2024-01-30T09:19:08;102521.44;;;6.97;100.00
41967;BME280;27656;53.068;8.818;2024-01-30T09:21:35;102524.84;;;7.14;100.00
41967;BME280;27656;53.068;8.818;2024-01-30T09:24:02;102525.31;;;7.35;100.00
41967;BME280;27656;53.068;8.818;2024-01-30T09:26:32;102523.16;;;7.56;100.00
41967;BME280;27656;53.068;8.818;2024-01-30T09:28:58;102527.16;;;7.61;100.00
41967;BME280;27656;53.068;8.818;2024-01-30T09:31:25;102520.59;;;7.69;100.00
41967;BME280;27656;53.068;8.818;2024-01-30T09:33:51;102514.41;;;7.70;100.00
41967;BME280;27656;53.068;8.818;2024-01-30T09:36:20;102518.72;;;7.71;100.00
41967;BME280;27656;53.068;8.818;2024-01-30T09:38:47;102516.00;;;7.72;100.00
41967;BME280;27656;53.068;8.818;2024-01-30T09:41:14;102516.75;;;7.74;100.00
41967;BME280;27656;53.068;8.818;2024-01-30T09:43:45;102520.75;;;7.80;100.00
41967;BME280;27656;53.068;8.818;2024-01-30T09:46:16;102517.75;;;7.86;100.00
41967;BME280;27656;53.068;8.818;2024-01-30T09:48:46;102507.63;;;7.80;100.00
41967;BME280;27656;53.068;8.818;2024-01-30T09:51:14;102508.28;;;7.83;100.00
41967;BME280;27656;53.068;8.818;2024-01-30T09:53:42;102510.50;;;7.90;100.00
41967;BME280;27656;53.068;8.818;2024-01-30T09:56:12;102513.38;;;7.99;100.00
41967;BME280;27656;53.068;8.818;2024-01-30T09:58:39;102517.50;;;8.03;100.00
41967;BME280;27656;53.068;8.818;2024-01-30T10:01:06;102508.50;;;8.07;100.00
41967;BME280;27656;53.068;8.818;2024-01-30T10:03:33;102504.81;;;8.10;100.00
41967;BME280;27656;53.068;8.818;2024-01-30T10:06:00;102506.94;;;8.18;100.00
41967;BME280;27656;53.068;8.818;2024-01-30T10:08:27;102507.59;;;8.21;100.00
41967;BME280;27656;53.068;8.818;2024-01-30T10:10:56;102511.81;;;8.24;100.00
41967;BME280;27656;53.068;8.818;2024-01-30T10:13:25;102514.44;;;8.24;100.00
41967;BME280;27656;53.068;8.818;2024-01-30T10:15:52;102513.94;;;8.32;100.00
41967;BME280;27656;53.068;8.818;2024-01-30T10:18:19;102515.81;;;8.29;100.00
41967;BME280;27656;53.068;8.818;2024-01-30T10:20:46;102516.00;;;8.41;100.00
41967;BME280;27656;53.068;8.818;2024-01-30T10:23:13;102510.75;;;8.41;100.00
41967;BME280;27656;53.068;8.818;2024-01-30T10:25:39;102514.66;;;8.48;100.00
41967;BME280;27656;53.068;8.818;2024-01-30T10:28:06;102519.91;;;8.48;100.00
41967;BME280;27656;53.068;8.818;2024-01-30T10:30:32;102520.00;;;8.46;100.00
41967;BME280;27656;53.068;8.818;2024-01-30T10:32:59;102525.72;;;8.53;100.00
41967;BME280;27656;53.068;8.818;2024-01-30T10:35:25;102515.41;;;8.63;100.00
41967;BME280;27656;53.068;8.818;2024-01-30T10:37:53;102505.84;;;8.75;100.00
41967;BME280;27656;53.068;8.818;2024-01-30T10:40:26;102507.88;;;8.71;100.00
41967;BME280;27656;53.068;8.818;2024-01-30T10:42:55;102503.75;;;8.80;100.00
41967;BME280;27656;53.068;8.818;2024-01-30T10:45:22;102506.28;;;8.94;100.00
41967;BME280;27656;53.068;8.818;2024-01-30T10:47:55;102503.34;;;8.99;100.00
41967;BME280;27656;53.068;8.818;2024-01-30T10:50:25;102506.31;;;9.07;100.00
41967;BME280;27656;53.068;8.818;2024-01-30T10:52:52;102514.28;;;9.18;100.00
41967;BME280;27656;53.068;8.818;2024-01-30T10:55:21;102509.44;;;9.38;100.00
41967;BME280;27656;53.068;8.818;2024-01-30T10:57:49;102501.50;;;9.50;100.00
41967;BME280;27656;53.068;8.818;2024-01-30T11:00:17;102497.25;;;9.61;100.00
41967;BME280;27656;53.068;8.818;2024-01-30T11:02:46;102496.50;;;9.71;100.00
41967;BME280;27656;53.068;8.818;2024-01-30T11:05:14;102492.22;;;9.82;100.00
41967;BME280;27656;53.068;8.818;2024-01-30T11:07:42;102495.50;;;9.85;100.00
41967;BME280;27656;53.068;8.818;2024-01-30T11:10:11;102491.16;;;9.84;100.00
41967;BME280;27656;53.068;8.818;2024-01-30T11:12:41;102496.34;;;9.86;100.00
41967;BME280;27656;53.068;8.818;2024-01-30T11:15:12;102499.25;;;9.94;100.00
41967;BME280;27656;53.068;8.818;2024-01-30T11:20:20;102497.69;;;10.15;100.00
41967;BME280;27656;53.068;8.818;2024-01-30T11:22:49;102503.34;;;10.22;100.00
41967;BME280;27656;53.068;8.818;2024-01-30T11:25:19;102491.47;;;10.16;100.00
41967;BME280;27656;53.068;8.818;2024-01-30T11:27:46;102495.94;;;10.27;100.00
41967;BME280;27656;53.068;8.818;2024-01-30T11:30:23;102504.06;;;10.37;100.00
41967;BME280;27656;53.068;8.818;2024-01-30T11:35:37;102506.09;;;10.33;100.00
41967;BME280;27656;53.068;8.818;2024-01-30T11:38:07;102493.28;;;10.40;100.00
41967;BME280;27656;53.068;8.818;2024-01-30T11:40:35;102482.84;;;10.50;100.00
41967;BME280;27656;53.068;8.818;2024-01-30T11:43:03;102473.28;;;10.49;100.00
41967;BME280;27656;53.068;8.818;2024-01-30T11:45:32;102469.91;;;10.58;100.00
41967;BME280;27656;53.068;8.818;2024-01-30T11:47:59;102475.06;;;10.59;100.00
41967;BME280;27656;53.068;8.818;2024-01-30T11:50:33;102474.69;;;10.53;100.00
41967;BME280;27656;53.068;8.818;2024-01-30T11:53:00;102483.69;;;10.50;100.00
41967;BME280;27656;53.068;8.818;2024-01-30T11:55:27;102478.59;;;10.36;100.00
41967;BME280;27656;53.068;8.818;2024-01-30T11:58:00;102476.69;;;10.14;100.00
41967;BME280;27656;53.068;8.818;2024-01-30T12:00:27;102468.63;;;10.04;100.00
41967;BME280;27656;53.068;8.818;2024-01-30T12:02:55;102466.66;;;9.95;100.00
41967;BME280;27656;53.068;8.818;2024-01-30T12:05:25;102464.34;;;9.90;100.00
41967;BME280;27656;53.068;8.818;2024-01-30T12:07:52;102472.28;;;9.90;100.00
41967;BME280;27656;53.068;8.818;2024-01-30T12:10:19;102469.88;;;9.87;100.00
41967;BME280;27656;53.068;8.818;2024-01-30T12:12:47;102476.56;;;9.91;100.00
41967;BME280;27656;53.068;8.818;2024-01-30T12:15:15;102478.28;;;9.92;100.00
41967;BME280;27656;53.068;8.818;2024-01-30T12:17:42;102479.28;;;10.03;100.00
41967;BME280;27656;53.068;8.818;2024-01-30T12:22:37;102484.78;;;10.00;100.00
41967;BME280;27656;53.068;8.818;2024-01-30T12:25:07;102494.69;;;10.09;100.00
41967;BME280;27656;53.068;8.818;2024-01-30T12:27:35;102485.88;;;10.08;100.00
41967;BME280;27656;53.068;8.818;2024-01-30T12:30:08;102481.13;;;10.13;100.00
41967;BME280;27656;53.068;8.818;2024-01-30T12:32:35;102485.69;;;10.11;100.00
41967;BME280;27656;53.068;8.818;2024-01-30T12:35:03;102493.13;;;10.17;100.00
41967;BME280;27656;53.068;8.818;2024-01-30T12:37:30;102490.88;;;10.24;100.00
41967;BME280;27656;53.068;8.818;2024-01-30T12:39:56;102481.41;;;10.22;100.00
41967;BME280;27656;53.068;8.818;2024-01-30T12:42:23;102483.94;;;10.23;100.00
41967;BME280;27656;53.068;8.818;2024-01-30T12:44:49;102495.22;;;10.25;100.00
41967;BME280;27656;53.068;8.818;2024-01-30T12:47:16;102484.84;;;10.35;100.00
41967;BME280;27656;53.068;8.818;2024-01-30T12:49:43;102484.00;;;10.34;100.00
41967;BME280;27656;53.068;8.818;2024-01-30T12:52:11;102474.31;;;10.35;100.00
41967;BME280;27656;53.068;8.818;2024-01-30T12:54:39;102476.81;;;10.36;100.00